createdAt,value
2022-08-29T00:00:18.469Z,76
2022-08-29T00:15:04.768Z,76
2022-08-29T00:30:06.002Z,76
2022-08-29T00:45:04.262Z,76
2022-08-29T01:00:08.501Z,76
2022-08-29T01:15:06.721Z,76
2022-08-29T01:30:08.014Z,76
2022-08-29T01:45:04.204Z,76
2022-08-29T02:00:08.949Z,75
2022-08-29T02:15:04.218Z,75
2022-08-29T02:30:09.570Z,75
2022-08-29T02:45:03.992Z,75
2022-08-29T03:00:08.426Z,75
2022-08-29T03:15:03.365Z,74
2022-08-29T03:30:10.935Z,74
2022-08-29T03:45:02.466Z,74
2022-08-29T04:00:05.635Z,74
2022-08-29T04:15:04.129Z,74
2022-08-29T04:30:07.965Z,73
2022-08-29T04:45:06.884Z,73
2022-08-29T05:00:12.621Z,73
2022-08-29T05:15:04.009Z,73
2022-08-29T05:30:07.539Z,73
2022-08-29T05:45:03.903Z,73
2022-08-29T06:00:07.102Z,73
2022-08-29T06:15:04.243Z,74
2022-08-29T06:30:10.160Z,74
2022-08-29T06:45:04.159Z,75
2022-08-29T07:00:22.937Z,75
2022-08-29T07:15:05.107Z,76
2022-08-29T07:30:14.718Z,76
2022-08-29T07:45:04.945Z,77
2022-08-29T08:00:14.518Z,77
2022-08-29T08:15:02.902Z,77
2022-08-29T08:30:08.329Z,77
2022-08-29T08:45:05.092Z,77
2022-08-29T09:00:07.223Z,77
2022-08-29T09:15:13.640Z,77
2022-08-29T09:30:06.199Z,77
2022-08-29T09:45:05.387Z,77
2022-08-29T10:00:08.116Z,76
2022-08-29T10:15:03.626Z,76
2022-08-29T10:30:10.508Z,76
2022-08-29T10:45:05.556Z,75
2022-08-29T11:00:09.763Z,75
2022-08-29T11:15:06.384Z,74
2022-08-29T11:30:12.521Z,74
2022-08-29T11:45:08.039Z,74
2022-08-29T12:00:14.821Z,73
2022-08-29T12:15:05.378Z,73
2022-08-29T12:30:09.803Z,72
2022-08-29T12:45:05.622Z,72
2022-08-29T13:00:14.711Z,72
2022-08-29T13:15:05.305Z,72
2022-08-29T13:30:13.726Z,72
2022-08-29T13:45:04.077Z,72
2022-08-29T14:00:11.821Z,71
2022-08-29T14:15:09.823Z,71
2022-08-29T14:30:09.864Z,70
2022-08-29T14:45:07.604Z,70
2022-08-29T15:00:10.018Z,70
2022-08-29T15:15:06.397Z,69
2022-08-29T15:30:10.613Z,69
2022-08-29T15:45:08.331Z,69
2022-08-29T16:00:18.553Z,69
2022-08-29T16:15:10.041Z,68
2022-08-29T16:30:12.047Z,68
2022-08-29T16:45:08.473Z,68
2022-08-29T17:00:11.591Z,68
2022-08-29T17:15:07.035Z,68
2022-08-29T17:30:09.436Z,68
2022-08-29T17:45:03.162Z,68
2022-08-29T18:00:11.959Z,68
2022-08-29T18:15:07.964Z,68
2022-08-29T18:30:10.831Z,69
2022-08-29T18:45:05.784Z,69
2022-08-29T19:00:10.265Z,69
2022-08-29T19:15:12.817Z,69
2022-08-29T19:30:09.841Z,70
2022-08-29T19:45:04.268Z,70
2022-08-29T20:00:14.146Z,70
2022-08-29T20:15:05.625Z,70
2022-08-29T20:30:10.595Z,71
2022-08-29T20:45:03.898Z,71
2022-08-29T21:00:07.914Z,71
2022-08-29T21:15:05.158Z,71
2022-08-29T21:30:10.729Z,71
2022-08-29T21:45:03.727Z,71
2022-08-29T22:00:07.093Z,71
2022-08-29T22:15:05.286Z,71
2022-08-29T22:30:10.363Z,71
2022-08-29T22:45:08.900Z,71
2022-08-29T23:00:12.651Z,71
2022-08-29T23:15:05.554Z,71
2022-08-29T23:30:08.774Z,71
2022-08-29T23:45:04.744Z,71
